createdAt,value
2023-04-16T00:01:06.483Z,102336.56
2023-04-16T00:03:33.757Z,102333.28
2023-04-16T00:06:00.965Z,102331.84
2023-04-16T00:08:27.757Z,102337.41
2023-04-16T00:10:57.044Z,102343.56
2023-04-16T00:13:23.849Z,102345.50
2023-04-16T00:15:50.682Z,102348.53
2023-04-16T00:18:17.476Z,102339.94
2023-04-16T00:20:44.353Z,102339.34
2023-04-16T00:23:11.172Z,102344.91
2023-04-16T00:25:37.976Z,102335.09
2023-04-16T00:28:05.807Z,102338.84
2023-04-16T00:30:32.667Z,102337.16
2023-04-16T00:33:00.099Z,102335.94
2023-04-16T00:35:27.340Z,102335.72
2023-04-16T00:37:54.116Z,102332.44
2023-04-16T00:40:21.017Z,102343.34
2023-04-16T00:42:47.899Z,102338.84
2023-04-16T00:45:14.732Z,102337.16
2023-04-16T00:47:41.604Z,102330.03
2023-04-16T00:50:08.683Z,102330.28
2023-04-16T00:52:35.625Z,102332.44
2023-04-16T00:55:02.866Z,102338.84
2023-04-16T00:57:29.581Z,102332.44
2023-04-16T00:59:56.795Z,102327.94
2023-04-16T01:02:24.026Z,102327.13
2023-04-16T01:04:51.259Z,102328.22
2023-04-16T01:07:18.258Z,102327.13
2023-04-16T01:09:44.982Z,102332.44
2023-04-16T01:12:11.741Z,102325.44
2023-04-16T01:14:38.548Z,102320.47
2023-04-16T01:17:05.276Z,102330.50
2023-04-16T01:19:32.133Z,102317.22
2023-04-16T01:21:59.334Z,102321.94
2023-04-16T01:24:26.168Z,102319.16
2023-04-16T01:26:52.986Z,102320.59
2023-04-16T01:29:19.720Z,102326.44
2023-04-16T01:31:47.184Z,102329.66
2023-04-16T01:34:14.052Z,102323.00
2023-04-16T01:36:40.820Z,102317.69
2023-04-16T01:39:08.015Z,102323.88
2023-04-16T01:41:34.946Z,102314.03
2023-04-16T01:44:01.799Z,102318.78
2023-04-16T01:46:29.590Z,102320.00
2023-04-16T01:48:56.801Z,102324.25
2023-04-16T01:51:24.397Z,102321.44
2023-04-16T01:53:51.327Z,102320.00
2023-04-16T01:56:18.116Z,102323.66
2023-04-16T01:58:46.367Z,102320.00
2023-04-16T02:01:13.789Z,102319.59
2023-04-16T02:03:40.958Z,102317.09
2023-04-16T02:06:07.901Z,102319.38
2023-04-16T02:08:34.745Z,102314.91
2023-04-16T02:11:01.862Z,102318.31
2023-04-16T02:13:28.673Z,102313.34
2023-04-16T02:15:55.478Z,102314.66
2023-04-16T02:18:22.222Z,102307.16
2023-04-16T02:20:50.124Z,102311.66
2023-04-16T02:23:17.132Z,102312.75
2023-04-16T02:25:45.482Z,102313.34
2023-04-16T02:28:13.531Z,102312.25
2023-04-16T02:30:40.652Z,102313.97
2023-04-16T02:33:08.718Z,102317.81
2023-04-16T02:35:35.659Z,102320.00
2023-04-16T02:38:02.877Z,102314.44
2023-04-16T02:40:30.176Z,102316.13
2023-04-16T02:42:57.533Z,102305.25
2023-04-16T02:45:24.561Z,102302.19
2023-04-16T02:47:51.985Z,102297.75
2023-04-16T02:50:18.881Z,102297.50
2023-04-16T02:52:45.696Z,102297.75
2023-04-16T02:55:12.470Z,102297.75
2023-04-16T02:57:39.213Z,102297.50
2023-04-16T03:00:06.437Z,102298.34
2023-04-16T03:02:33.327Z,102298.59
2023-04-16T03:05:00.206Z,102297.50
2023-04-16T03:07:29.559Z,102299.06
2023-04-16T03:09:56.299Z,102301.84
2023-04-16T03:12:23.040Z,102300.97
2023-04-16T03:14:50.984Z,102300.13
2023-04-16T03:17:17.858Z,102301.25
2023-04-16T03:19:44.626Z,102301.59
2023-04-16T03:22:13.697Z,102300.53
2023-04-16T03:24:40.395Z,102302.09
2023-04-16T03:27:07.161Z,102307.41
2023-04-16T03:29:33.941Z,102308.88
2023-04-16T03:32:00.901Z,102309.97
2023-04-16T03:34:27.706Z,102308.25
2023-04-16T03:36:54.503Z,102306.31
2023-04-16T03:39:21.223Z,102304.63
2023-04-16T03:41:47.972Z,102308.88
2023-04-16T03:44:14.833Z,102312.13
2023-04-16T03:46:41.622Z,102308.25
2023-04-16T03:49:08.732Z,102300.75
2023-04-16T03:51:35.757Z,102296.28
2023-04-16T03:54:02.481Z,102312.50
2023-04-16T03:56:29.259Z,102310.81
2023-04-16T03:58:56.221Z,102310.81
2023-04-16T04:01:22.999Z,102305.47
2023-04-16T04:03:49.937Z,102311.66
2023-04-16T04:06:16.920Z,102304.16
2023-04-16T04:08:43.806Z,102301.59
2023-04-16T04:11:10.551Z,102310.56
2023-04-16T04:13:37.304Z,102309.72
2023-04-16T04:16:04.586Z,102304.97
2023-04-16T04:18:31.331Z,102302.19
2023-04-16T04:20:58.191Z,102305.84
2023-04-16T04:23:24.963Z,102304.38
2023-04-16T04:25:51.779Z,102307.75
2023-04-16T04:28:18.608Z,102308.03
2023-04-16T04:30:45.583Z,102301.59
2023-04-16T04:33:12.404Z,102303.91
2023-04-16T04:35:39.164Z,102304.38
2023-04-16T04:38:06.098Z,102306.09
2023-04-16T04:40:35.247Z,102306.69
2023-04-16T04:43:02.051Z,102304.75
2023-04-16T04:45:31.193Z,102305.25
2023-04-16T04:47:58.724Z,102315.28
2023-04-16T04:50:25.468Z,102309.97
2023-04-16T04:52:52.236Z,102312.75
2023-04-16T04:55:19.033Z,102307.16
2023-04-16T04:57:45.832Z,102309.09
2023-04-16T05:00:13.108Z,102310.56
2023-04-16T05:02:40.109Z,102304.97
2023-04-16T05:05:07.326Z,102306.09
2023-04-16T05:07:34.605Z,102304.97
2023-04-16T05:10:01.510Z,102298.81
2023-04-16T05:12:28.314Z,102304.16
2023-04-16T05:14:55.116Z,102306.09
2023-04-16T05:17:21.929Z,102308.63
2023-04-16T05:19:48.876Z,102309.97
2023-04-16T05:22:19.173Z,102312.50
2023-04-16T05:24:46.098Z,102310.31
2023-04-16T05:27:12.887Z,102305.25
2023-04-16T05:29:39.609Z,102311.41
2023-04-16T05:32:06.509Z,102314.19
2023-04-16T05:34:33.327Z,102315.03
2023-04-16T05:37:00.158Z,102308.63
2023-04-16T05:39:27.343Z,102315.88
2023-04-16T05:41:54.114Z,102315.88
2023-04-16T05:44:20.970Z,102313.09
2023-04-16T05:46:50.348Z,102317.81
2023-04-16T05:49:19.015Z,102320.38
2023-04-16T05:51:46.029Z,102317.81
2023-04-16T05:54:12.796Z,102324.47
2023-04-16T05:56:39.586Z,102326.44
2023-04-16T05:59:06.434Z,102319.75
2023-04-16T06:01:34.402Z,102317.81
2023-04-16T06:04:01.693Z,102328.09
2023-04-16T06:06:28.561Z,102326.44
2023-04-16T06:08:57.984Z,102328.09
2023-04-16T06:11:24.831Z,102333.44
2023-04-16T06:13:51.776Z,102325.94
2023-04-16T06:16:18.649Z,102330.03
2023-04-16T06:18:45.442Z,102329.81
2023-04-16T06:21:12.399Z,102338.63
2023-04-16T06:23:39.217Z,102341.16
2023-04-16T06:26:05.960Z,102335.13
2023-04-16T06:28:32.764Z,102335.59
2023-04-16T06:31:00.325Z,102336.44
2023-04-16T06:33:27.137Z,102345.06
2023-04-16T06:35:53.960Z,102338.38
2023-04-16T06:38:20.837Z,102342.63
2023-04-16T06:40:48.740Z,102346.50
2023-04-16T06:43:16.200Z,102346.50
2023-04-16T06:45:42.991Z,102352.91
2023-04-16T06:48:09.771Z,102354.63
2023-04-16T06:50:36.584Z,102349.28
2023-04-16T06:53:03.535Z,102344.78
2023-04-16T06:55:30.692Z,102349.28
2023-04-16T06:57:57.401Z,102345.41
2023-04-16T07:00:24.178Z,102350.34
2023-04-16T07:02:51.349Z,102350.13
2023-04-16T07:05:18.354Z,102352.06
2023-04-16T07:07:45.202Z,102358.25
2023-04-16T07:10:12.197Z,102351.56
2023-04-16T07:12:41.455Z,102352.91
2023-04-16T07:15:08.541Z,102361.88
2023-04-16T07:17:35.615Z,102357.63
2023-04-16T07:20:02.525Z,102362.13
2023-04-16T07:22:29.482Z,102371.06
2023-04-16T07:24:56.801Z,102366.59
2023-04-16T07:27:23.653Z,102365.75
2023-04-16T07:29:51.254Z,102366.81
2023-04-16T07:32:18.277Z,102367.91
2023-04-16T07:34:45.092Z,102366.59
2023-04-16T07:37:11.963Z,102371.31
2023-04-16T07:39:38.817Z,102366.59
2023-04-16T07:42:06.138Z,102369.97
2023-04-16T07:44:33.151Z,102373.03
2023-04-16T07:46:59.945Z,102370.47
2023-04-16T07:49:26.688Z,102372.75
2023-04-16T07:51:53.516Z,102380.88
2023-04-16T07:54:22.769Z,102380.88
2023-04-16T07:56:49.507Z,102382.59
2023-04-16T07:59:22.511Z,102379.19
2023-04-16T08:01:53.846Z,102375.09
2023-04-16T08:04:25.658Z,102383.66
2023-04-16T08:06:53.245Z,102385.38
2023-04-16T08:09:21.891Z,102386.22
2023-04-16T08:11:50.165Z,102384.53
2023-04-16T08:14:17.490Z,102390.94
2023-04-16T08:16:44.712Z,102390.09
2023-04-16T08:19:11.651Z,102393.47
2023-04-16T08:21:41.114Z,102389.84
2023-04-16T08:24:08.346Z,102394.31
2023-04-16T08:26:37.495Z,102391.53
2023-04-16T08:29:04.275Z,102396.88
2023-04-16T08:31:31.105Z,102397.72
2023-04-16T08:33:58.060Z,102393.03
2023-04-16T08:36:25.073Z,102393.03
2023-04-16T08:38:52.600Z,102390.47
2023-04-16T08:41:22.104Z,102391.09
2023-04-16T08:43:51.069Z,102393.03
2023-04-16T08:46:18.191Z,102387.44
2023-04-16T08:48:48.634Z,102394.69
2023-04-16T08:51:17.599Z,102395.81
2023-04-16T08:53:53.601Z,102392.16
2023-04-16T08:56:21.503Z,102398.59
2023-04-16T08:58:49.211Z,102402.81
2023-04-16T09:01:17.642Z,102395.31
2023-04-16T09:03:48.874Z,102407.53
2023-04-16T09:06:17.788Z,102415.66
2023-04-16T09:08:45.248Z,102411.78
2023-04-16T09:11:13.628Z,102410.69
2023-04-16T09:13:40.661Z,102408.75
2023-04-16T09:16:07.967Z,102415.78
2023-04-16T09:18:34.917Z,102420.28
2023-04-16T09:21:01.953Z,102413.59
2023-04-16T09:23:29.605Z,102411.44
2023-04-16T09:25:57.689Z,102417.88
2023-04-16T09:28:43.372Z,102412.91
2023-04-16T09:31:11.679Z,102418.25
2023-04-16T09:33:38.825Z,102416.09
2023-04-16T09:36:06.379Z,102415.81
2023-04-16T09:38:42.624Z,102415.81
2023-04-16T09:41:09.620Z,102421.38
2023-04-16T09:43:37.276Z,102416.91
2023-04-16T09:46:08.202Z,102425.66
2023-04-16T09:48:35.326Z,102429.03
2023-04-16T09:51:02.346Z,102417.31
2023-04-16T09:53:30.149Z,102417.66
2023-04-16T09:55:58.290Z,102413.19
2023-04-16T09:58:25.274Z,102419.59
2023-04-16T10:01:12.079Z,102418.25
2023-04-16T10:03:40.225Z,102426.16
2023-04-16T10:06:07.547Z,102424.69
2023-04-16T10:08:34.332Z,102415.25
2023-04-16T10:11:01.622Z,102422.16
2023-04-16T10:13:28.492Z,102423.38
2023-04-16T10:15:58.342Z,102426.38
2023-04-16T10:18:25.212Z,102423.59
2023-04-16T10:20:52.233Z,102418.66
2023-04-16T10:23:23.404Z,102418.41
2023-04-16T10:25:50.678Z,102416.72
2023-04-16T10:28:17.661Z,102424.22
2023-04-16T10:30:53.086Z,102421.44
2023-04-16T10:33:21.225Z,102416.84
2023-04-16T10:35:57.610Z,102419.88
2023-04-16T10:38:32.940Z,102417.47
2023-04-16T10:41:01.093Z,102419.16
2023-04-16T10:43:28.929Z,102407.16
2023-04-16T10:45:56.176Z,102411.53
2023-04-16T10:48:24.947Z,102411.03
2023-04-16T10:50:56.387Z,102414.91
2023-04-16T10:53:26.091Z,102412.13
2023-04-16T10:56:02.287Z,102418.09
2023-04-16T10:58:30.972Z,102417.69
2023-04-16T11:01:01.654Z,102415.16
2023-04-16T11:03:32.727Z,102413.59
2023-04-16T11:06:09.322Z,102419.56
2023-04-16T11:08:44.254Z,102414.19
2023-04-16T11:11:21.752Z,102415.06
2023-04-16T11:13:51.667Z,102415.94
2023-04-16T11:16:18.771Z,102405.81
2023-04-16T11:18:51.502Z,102409.50
2023-04-16T11:21:18.819Z,102406.50
2023-04-16T11:23:46.711Z,102409.28
2023-04-16T11:26:23.337Z,102411.19
2023-04-16T11:28:50.266Z,102402.00
2023-04-16T11:31:17.387Z,102405.16
2023-04-16T11:33:44.343Z,102404.78
2023-04-16T11:36:11.194Z,102411.19
2023-04-16T11:38:38.647Z,102409.50
2023-04-16T11:41:05.486Z,102404.97
2023-04-16T11:43:32.456Z,102404.78
2023-04-16T11:46:01.619Z,102405.63
2023-04-16T11:48:39.234Z,102409.88
2023-04-16T11:51:06.086Z,102407.94
2023-04-16T11:53:33.131Z,102406.84
2023-04-16T11:55:59.984Z,102392.91
2023-04-16T11:58:27.005Z,102401.28
2023-04-16T12:00:57.178Z,102396.56
2023-04-16T12:03:46.568Z,102396.56
2023-04-16T12:06:13.832Z,102404.44
2023-04-16T12:08:43.995Z,102401.41
2023-04-16T12:11:10.895Z,102398.41
2023-04-16T12:13:40.457Z,102399.00
2023-04-16T12:16:18.576Z,102393.41
2023-04-16T12:18:59.677Z,102400.69
2023-04-16T12:21:26.968Z,102399.63
2023-04-16T12:23:54.394Z,102393.78
2023-04-16T12:26:21.187Z,102398.25
2023-04-16T12:28:47.993Z,102384.97
2023-04-16T12:31:15.552Z,102385.31
2023-04-16T12:33:42.838Z,102391.47
2023-04-16T12:36:19.460Z,102383.97
2023-04-16T12:38:46.556Z,102385.69
2023-04-16T12:41:13.382Z,102384.09
2023-04-16T12:43:40.708Z,102393.09
2023-04-16T12:46:07.579Z,102392.72
2023-04-16T12:48:34.989Z,102388.38
2023-04-16T12:51:02.241Z,102386.66
2023-04-16T12:53:29.362Z,102393.09
2023-04-16T12:55:56.347Z,102388.81
2023-04-16T12:58:23.195Z,102383.25
2023-04-16T13:00:50.164Z,102388.81
2023-04-16T13:03:17.395Z,102393.53
2023-04-16T13:05:44.530Z,102383.50
2023-04-16T13:08:11.462Z,102388.59
2023-04-16T13:10:38.470Z,102391.72
2023-04-16T13:13:05.848Z,102396.59
2023-04-16T13:15:32.735Z,102379.63
2023-04-16T13:17:59.829Z,102379.16
2023-04-16T13:20:26.825Z,102384.09
2023-04-16T13:22:54.398Z,102379.63
2023-04-16T13:25:24.489Z,102382.41
2023-04-16T13:27:51.391Z,102377.09
2023-04-16T13:30:18.594Z,102376.22
2023-04-16T13:32:45.848Z,102372.38
2023-04-16T13:35:12.856Z,102366.53
2023-04-16T13:37:39.832Z,102374.66
2023-04-16T13:40:07.308Z,102369.94
2023-04-16T13:42:34.209Z,102372.72
2023-04-16T13:45:01.540Z,102369.31
2023-04-16T13:47:31.261Z,102370.78
2023-04-16T13:49:58.151Z,102363.75
2023-04-16T13:52:25.147Z,102370.16
2023-04-16T13:54:52.116Z,102371.66
2023-04-16T13:57:21.285Z,102360.09
2023-04-16T13:59:48.157Z,102369.31
2023-04-16T14:02:18.323Z,102371.25
2023-04-16T14:04:45.208Z,102364.84
2023-04-16T14:07:12.132Z,102372.50
2023-04-16T14:09:38.951Z,102372.97
2023-04-16T14:12:06.145Z,102369.94
2023-04-16T14:14:33.102Z,102367.38
2023-04-16T14:17:00.018Z,102368.00
2023-04-16T14:19:26.915Z,102370.53
2023-04-16T14:21:54.697Z,102368.59
2023-04-16T14:24:21.554Z,102373.81
2023-04-16T14:26:48.457Z,102368.22
2023-04-16T14:29:15.368Z,102361.81
2023-04-16T14:31:42.524Z,102365.56
2023-04-16T14:34:09.501Z,102359.16
2023-04-16T14:36:37.220Z,102359.63
2023-04-16T14:39:05.069Z,102358.66
2023-04-16T14:41:32.095Z,102361.44
2023-04-16T14:44:00.028Z,102354.78
2023-04-16T14:46:27.470Z,102359.03
2023-04-16T14:48:54.442Z,102348.34
2023-04-16T14:51:21.364Z,102359.16
2023-04-16T14:53:48.310Z,102350.56
2023-04-16T14:56:15.126Z,102350.06
2023-04-16T14:58:43.548Z,102349.69
2023-04-16T15:01:10.510Z,102350.28
2023-04-16T15:03:37.532Z,102346.69
2023-04-16T15:06:04.755Z,102348.84
2023-04-16T15:08:31.975Z,102346.91
2023-04-16T15:10:58.830Z,102338.31
2023-04-16T15:13:25.807Z,102332.97
2023-04-16T15:15:52.692Z,102333.84
2023-04-16T15:18:19.600Z,102334.06
2023-04-16T15:20:46.651Z,102331.28
2023-04-16T15:23:13.736Z,102324.63
2023-04-16T15:25:40.665Z,102323.78
2023-04-16T15:28:07.534Z,102323.78
2023-04-16T15:30:34.617Z,102322.06
2023-04-16T15:33:01.645Z,102317.34
2023-04-16T15:35:28.694Z,102324.84
2023-04-16T15:37:55.780Z,102325.47
2023-04-16T15:40:22.858Z,102316.03
2023-04-16T15:42:49.968Z,102315.19
2023-04-16T15:45:17.073Z,102315.75
2023-04-16T15:47:45.683Z,102319.63
2023-04-16T15:50:12.909Z,102316.25
2023-04-16T15:52:40.033Z,102310.44
2023-04-16T15:55:07.318Z,102310.69
2023-04-16T15:57:34.170Z,102307.66
2023-04-16T16:00:06.363Z,102311.53
2023-04-16T16:02:34.608Z,102311.03
2023-04-16T16:05:01.807Z,102308.03
2023-04-16T16:07:28.833Z,102316.38
2023-04-16T16:09:56.691Z,102313.81
2023-04-16T16:12:23.958Z,102314.06
2023-04-16T16:14:51.336Z,102313.81
2023-04-16T16:17:19.481Z,102316.63
2023-04-16T16:19:46.739Z,102323.28
2023-04-16T16:22:14.358Z,102319.63
2023-04-16T16:24:41.286Z,102318.53
2023-04-16T16:27:08.256Z,102315.19
2023-04-16T16:29:35.048Z,102319.41
2023-04-16T16:32:02.212Z,102312.13
2023-04-16T16:34:29.147Z,102321.84
2023-04-16T16:36:56.193Z,102316.25
2023-04-16T16:39:24.911Z,102325.47
2023-04-16T16:41:53.068Z,102325.22
2023-04-16T16:44:20.215Z,102319.03
2023-04-16T16:46:48.508Z,102306.81
2023-04-16T16:49:16.087Z,102316.25
2023-04-16T16:51:45.268Z,102312.63
2023-04-16T16:54:12.447Z,102315.41
2023-04-16T16:56:39.411Z,102318.19
2023-04-16T16:59:06.603Z,102316.25
2023-04-16T17:01:33.485Z,102316.84
2023-04-16T17:04:00.484Z,102316.25
2023-04-16T17:06:27.732Z,102309.59
2023-04-16T17:08:54.589Z,102310.19
2023-04-16T17:11:23.791Z,102307.16
2023-04-16T17:13:50.906Z,102304.63
2023-04-16T17:16:18.010Z,102310.19
2023-04-16T17:18:45.043Z,102303.75
2023-04-16T17:21:12.372Z,102301.38
2023-04-16T17:23:41.102Z,102309.94
2023-04-16T17:26:08.219Z,102307.16
2023-04-16T17:28:35.172Z,102305.81
2023-04-16T17:31:03.060Z,102309.72
2023-04-16T17:33:29.940Z,102312.50
2023-04-16T17:35:56.875Z,102313.09
2023-04-16T17:38:23.998Z,102315.53
2023-04-16T17:40:50.933Z,102313.59
2023-04-16T17:43:17.878Z,102315.03
2023-04-16T17:45:44.900Z,102311.41
2023-04-16T17:48:11.839Z,102320.88
2023-04-16T17:50:39.623Z,102321.69
2023-04-16T17:53:06.762Z,102312.75
2023-04-16T17:55:33.569Z,102320.88
2023-04-16T17:58:01.051Z,102316.84
2023-04-16T18:00:28.002Z,102317.13
2023-04-16T18:02:57.088Z,102316.25
2023-04-16T18:05:24.329Z,102317.97
2023-04-16T18:07:51.904Z,102316.25
2023-04-16T18:10:19.131Z,102329.09
2023-04-16T18:12:46.116Z,102324.38
2023-04-16T18:15:12.980Z,102328.25
2023-04-16T18:17:39.941Z,102333.22
2023-04-16T18:20:09.322Z,102337.69
2023-04-16T18:22:36.182Z,102337.69
2023-04-16T18:25:03.551Z,102342.44
2023-04-16T18:27:30.501Z,102348.00
2023-04-16T18:29:57.501Z,102354.44
2023-04-16T18:32:24.522Z,102357.44
2023-04-16T18:34:51.900Z,102355.78
2023-04-16T18:37:18.713Z,102351.28
2023-04-16T18:39:45.540Z,102354.91
2023-04-16T18:42:12.489Z,102359.63
2023-04-16T18:44:39.328Z,102360.72
2023-04-16T18:47:06.213Z,102360.72
2023-04-16T18:49:33.070Z,102354.91
2023-04-16T18:51:59.954Z,102361.34
2023-04-16T18:54:27.908Z,102368.00
2023-04-16T18:56:54.800Z,102362.44
2023-04-16T18:59:21.784Z,102370.16
2023-04-16T19:01:48.694Z,102367.16
2023-04-16T19:04:19.534Z,102366.31
2023-04-16T19:06:48.499Z,102366.53
2023-04-16T19:09:15.919Z,102366.31
2023-04-16T19:11:43.277Z,102365.44
2023-04-16T19:14:10.358Z,102365.44
2023-04-16T19:16:38.927Z,102369.31
2023-04-16T19:19:08.153Z,102364.38
2023-04-16T19:21:37.559Z,102365.22
2023-04-16T19:24:04.652Z,102370.16
2023-04-16T19:26:31.673Z,102372.09
2023-04-16T19:28:58.683Z,102379.63
2023-04-16T19:31:26.837Z,102376.81
2023-04-16T19:33:53.920Z,102381.56
2023-04-16T19:36:21.081Z,102381.09
2023-04-16T19:38:48.121Z,102377.44
2023-04-16T19:41:15.381Z,102374.66
2023-04-16T19:43:42.396Z,102377.69
2023-04-16T19:46:09.382Z,102386.88
2023-04-16T19:48:36.977Z,102384.72
2023-04-16T19:51:04.781Z,102384.72
2023-04-16T19:53:31.887Z,102392.47
2023-04-16T19:55:58.867Z,102396.47
2023-04-16T19:58:25.981Z,102400.81
2023-04-16T20:00:52.950Z,102400.81
2023-04-16T20:03:20.062Z,102408.09
2023-04-16T20:05:48.626Z,102408.31
2023-04-16T20:08:15.958Z,102411.50
2023-04-16T20:10:42.928Z,102414.03
2023-04-16T20:13:12.451Z,102405.94
2023-04-16T20:15:39.506Z,102409.06
2023-04-16T20:18:07.235Z,102417.09
2023-04-16T20:20:35.479Z,102414.53
2023-04-16T20:23:02.505Z,102409.81
2023-04-16T20:25:29.905Z,102422.03
2023-04-16T20:27:56.920Z,102417.91
2023-04-16T20:30:29.291Z,102420.94
2023-04-16T20:32:56.885Z,102418.16
2023-04-16T20:35:23.850Z,102409.81
2023-04-16T20:37:50.851Z,102419.88
2023-04-16T20:40:17.856Z,102412.94
2023-04-16T20:42:52.607Z,102419.59
2023-04-16T20:45:19.666Z,102422.66
2023-04-16T20:47:46.815Z,102419.88
2023-04-16T20:50:14.062Z,102420.47
2023-04-16T20:52:42.594Z,102422.38
2023-04-16T20:55:09.933Z,102417.09
2023-04-16T20:57:37.002Z,102412.09
2023-04-16T21:00:06.918Z,102407.59
2023-04-16T21:02:34.332Z,102415.97
2023-04-16T21:05:01.611Z,102415.13
2023-04-16T21:07:28.605Z,102418.75
2023-04-16T21:09:55.698Z,102420.94
2023-04-16T21:12:22.594Z,102414.28
2023-04-16T21:14:49.572Z,102413.19
2023-04-16T21:17:16.954Z,102403.38
2023-04-16T21:19:44.110Z,102402.03
2023-04-16T21:22:11.260Z,102405.31
2023-04-16T21:24:38.179Z,102402.75
2023-04-16T21:27:07.728Z,102409.19
2023-04-16T21:29:34.860Z,102405.44
2023-04-16T21:32:01.838Z,102403.38
2023-04-16T21:34:28.778Z,102402.63
2023-04-16T21:36:55.692Z,102407.50
2023-04-16T21:39:22.653Z,102410.41
2023-04-16T21:41:49.937Z,102409.44
2023-04-16T21:44:17.002Z,102415.50
2023-04-16T21:46:44.016Z,102414.25
2023-04-16T21:49:13.996Z,102413.91
2023-04-16T21:51:43.423Z,102411.81
2023-04-16T21:54:10.379Z,102414.72
2023-04-16T21:56:39.628Z,102414.59
2023-04-16T21:59:12.612Z,102414.72
2023-04-16T22:01:39.684Z,102405.13
2023-04-16T22:04:07.876Z,102407.53
2023-04-16T22:06:38.088Z,102409.34
2023-04-16T22:09:05.538Z,102408.09
2023-04-16T22:11:32.679Z,102403.47
2023-04-16T22:13:59.641Z,102399.41
2023-04-16T22:16:27.073Z,102402.06
2023-04-16T22:18:55.321Z,102408.44
2023-04-16T22:21:22.239Z,102408.03
2023-04-16T22:23:49.295Z,102400.94
2023-04-16T22:26:16.503Z,102396.63
2023-04-16T22:28:43.405Z,102397.94
2023-04-16T22:31:10.568Z,102396.66
2023-04-16T22:33:37.632Z,102389.53
2023-04-16T22:36:04.849Z,102392.50
2023-04-16T22:38:31.991Z,102396.00
2023-04-16T22:40:59.037Z,102389.09
2023-04-16T22:43:27.259Z,102387.81
2023-04-16T22:46:04.926Z,102389.59
2023-04-16T22:48:32.200Z,102378.47
2023-04-16T22:50:59.339Z,102381.06
2023-04-16T22:53:26.331Z,102381.75
2023-04-16T22:55:53.316Z,102379.88
2023-04-16T22:58:20.604Z,102376.03
2023-04-16T23:00:48.437Z,102386.72
2023-04-16T23:03:15.756Z,102378.66
2023-04-16T23:05:42.730Z,102381.53
2023-04-16T23:08:09.868Z,102385.50
2023-04-16T23:10:37.196Z,102384.97
2023-04-16T23:13:04.160Z,102379.69
2023-04-16T23:15:31.604Z,102381.72
2023-04-16T23:17:58.758Z,102391.28
2023-04-16T23:20:26.368Z,102375.94
2023-04-16T23:22:53.358Z,102382.09
2023-04-16T23:25:20.361Z,102378.78
2023-04-16T23:27:47.341Z,102381.91
2023-04-16T23:30:15.162Z,102373.25
2023-04-16T23:32:42.099Z,102388.66
2023-04-16T23:35:09.431Z,102380.88
2023-04-16T23:37:36.488Z,102382.53
2023-04-16T23:40:04.686Z,102385.94
2023-04-16T23:42:31.660Z,102380.09
2023-04-16T23:44:58.849Z,102386.53
2023-04-16T23:47:25.828Z,102388.19
2023-04-16T23:49:52.768Z,102387.94
2023-04-16T23:52:19.664Z,102394.97
2023-04-16T23:54:46.622Z,102391.34
2023-04-16T23:57:13.758Z,102393.00
2023-04-16T23:59:40.728Z,102396.66
